La Blanca, Texas
Current Conditions -  °F | °C
As of 2:15 AM on Monday 24 Nov 2014 (Local Time) from KT65 Reporting Station
Light Rain Light Rain  
Wind Chill: 64°   Ceiling: 100
Heat Index: 64°   Visibility: 0mi
Dew Point: 61°   Wind: 3mph
Humidity: 93%   Direction: 160°SSE
Pressure: 29.77"   Gusts: NA
Location:  26.29°N, 98.04°W
Report Text: KT65 240815Z AUTO 16003KT M1/4SM -RA OVC001 18/16 A2977 RMK AO2 T01750163
Loading
Personal Weather Stations






























Interactive Weather Map New forecast layout! Learn more

10-Day Weather Forecast

Advertisements
Track Severe Weather on mobile